• Join FlightAware (Why Join?)
  • Login
  • US Flag 
04:11AM EDT


 

Airport Tracker/Info


-or-


 

Live Flight TrackerFlight Track Log ✈ UAL685 ✈ 02-May-2013 ✈ KEWR - KSEA

Flight Track Log - Related Links

Times and Time Zones

All times are in EDT time to prevent confusion due to time zone crossing. See the UAL685 flight status page for this flight to view local times or setup timezone preferences in your user account.

Time Position Orientation Groundspeed Altitude Reporting Facility
EDT Latitude Longitude Course Direction KTS MPH feet Rate Location/Type
06:59AM 40.7222 -74.1336 298° West 175 201 1,900  Level New York Center
06:59AM 40.7333 -74.1167 49° Northeast 205 236 2,900 2,400 Climbing New York TRACON
07:00AM 40.7833 -74.1667 323° Northwest 262 302 5,100 1,980 Climbing New York TRACON
07:02AM 41.0190 -74.5577 316° Northwest  Level FlightAware Approximate
07:02AM 40.8456 -74.3261 297° West 303 349 8,100  Level New York Center
07:03AM 41.1008 -74.6629 316° Northwest  Level FlightAware Approximate
07:03AM 40.8931 -74.4056 308° West 292 336 10,600  Level New York Center
07:04AM 41.1627 -74.7734 298° West  Level FlightAware Approximate
07:04AM 40.9617 -74.4833 319° Northwest 313 360 12,700  Level New York Center
07:05AM 41.0317 -74.5697 317° Northwest 337 388 15,000 1,320 Climbing New York Center
07:06AM 41.1061 -74.6564 319° Northwest 354 407 15,400 1,320 Climbing New York Center
07:07AM 41.1689 -74.7675 307° West 368 423 17,700 1,920 Climbing New York Center
07:08AM 41.2231 -74.8922 300° West 382 440 19,200 1,860 Climbing New York Center
07:09AM 41.2711 -75.0056 299° West 389 448 21,400 1,860 Climbing New York Center
07:10AM 41.3267 -75.1333 300° West 395 455 23,100 1,620 Climbing New York Center
07:11AM 41.3842 -75.2669 300° West 410 472 24,800 1,380 Climbing New York Center
07:12AM 41.4417 -75.4008 300° West 410 472 25,900 1,140 Climbing New York Center
07:13AM 41.4942 -75.5431 296° West 415 478 27,100 1,260 Climbing New York Center
07:14AM 41.5378 -75.6986 291° West 428 493 28,400 1,200 Climbing New York Center
07:15AM 41.5833 -75.8544 291° West 444 511 29,600 1,200 Climbing New York Center
07:16AM 41.6283 -76.0161 290° West 450 518 30,800 1,440 Climbing New York Center
07:17AM 41.6736 -76.1722 291° West 455 524 32,500 1,380 Climbing New York Center
07:18AM 41.7183 -76.3289 291° West 455 524 33,600 1,320 Climbing New York Center
07:19AM 41.7589 -76.4850 289° West 455 524 35,200 1,200 Climbing New York Center
07:20AM 41.8050 -76.6506 291° West 449 517 36,000 180 Climbing New York Center
07:22AM 41.9067 -77.0117 291° West 455 524 36,000  Level Cleveland Center
07:23AM 41.9447 -77.1658 288° West 450 518 36,000  Level Cleveland Center
07:24AM 41.9867 -77.3203 290° West 444 511 36,000  Level Cleveland Center
07:25AM 42.0283 -77.4717 290° West 439 505 36,000  Level Cleveland Center
07:26AM 42.0678 -77.6264 289° West 439 505 36,000  Level Cleveland Center
07:27AM 42.1094 -77.7814 290° West 439 505 36,000  Level Cleveland Center
07:28AM 42.1506 -77.9336 290° West 439 505 36,000  Level Cleveland Center
07:29AM 42.1892 -78.0861 289° West 439 505 36,000  Level Cleveland Center
07:30AM 42.2344 -78.2556 290° West 439 505 36,000  Level Cleveland Center
07:31AM 42.2731 -78.4111 289° West 439 505 36,000  Level Cleveland Center
07:32AM 42.3133 -78.5700 289° West 439 505 36,000  Level Cleveland Center
07:33AM 42.3536 -78.7231 290° West 439 505 36,000  Level Cleveland Center
07:34AM 42.3933 -78.8794 289° West 439 505 36,000  Level Cleveland Center
07:35AM 42.4311 -79.0361 288° West 439 505 36,000  Level Cleveland Center
07:36AM 42.4728 -79.1925 290° West 439 505 36,000  Level Cleveland Center
07:37AM 42.4953 -79.3528 281° West 439 505 36,000  Level Cleveland Center
07:38AM 42.5053 -79.5186 275° West 439 505 36,000  Level Cleveland Center
07:39AM 42.5131 -79.6819 274° West 434 499 36,000  Level Cleveland Center
07:40AM 42.5203 -79.8481 273° West 439 505 36,000  Level Cleveland Center
07:41AM 42.5256 -80.0083 273° West 439 505 36,000  Level Cleveland Center
07:42AM 42.5325 -80.1747 273° West 439 505 36,000  Level Cleveland Center
07:43AM 42.5392 -80.3325 273° West 439 505 36,000  Level Cleveland Center
07:44AM 42.5456 -80.4986 273° West 439 505 36,000  Level Cleveland Center
07:45AM 42.5519 -80.6592 273° West 437 503 36,000  Level Cleveland Center
07:46AM 42.5600 -80.8228 274° West 437 503 36,000  Level Cleveland Center
07:47AM 42.5636 -80.9864 272° West 442 509 36,000  Level Cleveland Center
07:48AM 42.5692 -81.1500 273° West 442 509 36,000  Level Cleveland Center
07:49AM 42.5767 -81.2964 274° West 442 509 36,000  Level Cleveland Center
07:50AM 42.5861 -81.4658 274° West 443 510 36,000  Level Cleveland Center
07:51AM 42.6119 -81.6214 283° West 443 510 36,000  Level Cleveland Center
07:52AM 42.6417 -81.7800 284° West 437 503 36,000  Level Cleveland Center
07:53AM 42.6669 -81.9358 282° West 431 496 36,000  Level Cleveland Center
07:54AM 42.6942 -82.0944 283° West 431 496 36,000  Level Cleveland Center
07:55AM 42.7211 -82.2506 283° West 431 496 36,000  Level Cleveland Center
07:56AM 42.7500 -82.4069 284° West 431 496 36,000  Level Cleveland Center
07:57AM 42.7744 -82.5658 282° West 431 496 36,000  Level Cleveland Center
07:58AM 42.8008 -82.7253 283° West 431 496 36,000  Level Cleveland Center
07:59AM 42.8308 -82.8961 284° West 436 502 36,000  Level Cleveland Center
08:00AM 42.8547 -83.0558 282° West 431 496 36,000  Level Cleveland Center
08:01AM 42.8825 -83.2097 284° West 426 490 36,000  Level Cleveland Center
08:02AM 42.9081 -83.3697 282° West 426 490 36,000  Level Cleveland Center
08:03AM 42.9311 -83.5267 281° West 431 496 36,000  Level Cleveland Center
08:04AM 42.9561 -83.6839 282° West 431 496 36,000  Level Cleveland Center
08:05AM 43.0000 -83.8367 291° West 431 496 36,000  Level Cleveland Center
08:06AM 43.0542 -83.9814 297° West 437 503 36,000  Level Cleveland Center
08:07AM 43.1122 -84.1269 299° West 432 497 36,000  Level Cleveland Center
08:08AM 43.1661 -84.2753 297° West 432 497 36,000  Level Cleveland Center
08:11AM 43.2822 -84.5708 298° West 440 506 36,000  Level Chicago Center
08:12AM 43.3381 -84.7194 297° West 442 509 36,000  Level Chicago Center
08:13AM 43.3928 -84.8667 297° West 437 503 36,000  Level Chicago Center
08:14AM 43.4481 -85.0150 297° West 438 504 36,000  Level Chicago Center
08:15AM 43.5031 -85.1633 297° West 439 505 36,000  Level Chicago Center
08:16AM 43.5683 -85.3386 297° West 433 498 36,000  Level Chicago Center
08:17AM 43.6206 -85.4853 296° West 432 497 36,000 -60 Level Minneapolis Center
08:18AM 43.6844 -85.6592 297° West 428 493 35,900  Descending Minneapolis Center
08:19AM 43.7375 -85.8042 297° West 427 491 36,000  Climbing Minneapolis Center
08:20AM 43.7908 -85.9500 297° West 427 491 36,000  Level Minneapolis Center
08:21AM 43.8428 -86.0969 296° West 428 493 36,000  Level Minneapolis Center
08:22AM 43.8956 -86.2444 296° West 430 495 36,000  Level Minneapolis Center
08:23AM 43.9483 -86.3928 296° West 432 497 36,000  Level Minneapolis Center
08:24AM 44.0006 -86.5389 296° West 427 491 36,000  Level Minneapolis Center
08:25AM 44.0622 -86.7181 296° West 430 495 36,000  Level Minneapolis Center
08:26AM 44.1150 -86.8697 296° West 435 501 36,000  Level Minneapolis Center
08:27AM 44.1617 -87.0042 296° West 433 498 36,000  Level Minneapolis Center
08:28AM 44.2147 -87.1547 296° West 433 498 36,000  Level Minneapolis Center
08:29AM 44.2706 -87.3175 296° West 425 489 36,000 -60 Level Minneapolis Center
08:30AM 44.3206 -87.4650 295° West 422 486 35,900  Descending Minneapolis Center
08:31AM 44.3708 -87.6133 295° West 423 487 36,000  Climbing Minneapolis Center
08:32AM 44.4289 -87.7867 295° West 423 487 36,000  Level Minneapolis Center
08:33AM 44.4792 -87.9350 295° West 421 484 36,000  Level Minneapolis Center
08:34AM 44.5286 -88.0828 295° West 420 483 36,000  Level Minneapolis Center
08:35AM 44.5817 -88.2311 297° West 426 490 36,000  Level Minneapolis Center
08:36AM 44.6325 -88.3775 296° West 421 484 36,000  Level Minneapolis Center
08:37AM 44.6839 -88.5242 296° West 419 482 36,000  Level Minneapolis Center
08:38AM 44.7344 -88.6689 296° West 414 476 36,000 -60 Level Minneapolis Center
08:39AM 44.7925 -88.8375 296° West 410 472 35,900  Descending Minneapolis Center
08:40AM 44.8419 -88.9828 296° West 411 473 36,000  Climbing Minneapolis Center
08:41AM 44.8911 -89.1278 296° West 411 473 36,000  Level Minneapolis Center
08:42AM 44.9406 -89.2725 296° West 410 472 36,000  Level Minneapolis Center
08:44AM 44.9897 -89.4197 295° West 413 475 36,000  Level Minneapolis Center
08:45AM 45.0381 -89.5644 295° West 410 472 36,000  Level Minneapolis Center
08:46AM 45.0936 -89.7328 295° West 413 475 36,000  Level Minneapolis Center
08:47AM 45.1433 -89.8822 295° West 416 479 36,000  Level Minneapolis Center
08:48AM 45.1925 -90.0311 295° West 417 480 36,000  Level Minneapolis Center
08:49AM 45.2414 -90.1797 295° West 416 479 36,000  Level Minneapolis Center
08:50AM 45.2900 -90.3314 295° West 420 483 36,000  Level Minneapolis Center
08:51AM 45.3386 -90.4811 295° West 418 481 36,000  Level Minneapolis Center
08:52AM 45.3872 -90.6306 295° West 417 480 36,000  Level Minneapolis Center
08:53AM 45.4361 -90.7819 295° West 419 482 36,000  Level Minneapolis Center
08:54AM 45.4842 -90.9339 294° West 419 482 36,000  Level Minneapolis Center
08:55AM 45.5306 -91.0839 294° West 415 478 36,000  Level Minneapolis Center
08:56AM 45.5869 -91.2583 295° West 416 479 36,000  Level Minneapolis Center
08:57AM 45.6336 -91.4083 294° West 416 479 36,000  Level Minneapolis Center
08:58AM 45.6822 -91.5661 294° West 415 478 36,000  Level Minneapolis Center
08:59AM 45.7261 -91.7075 294° West 415 478 36,000  Level Minneapolis Center
09:00AM 45.7628 -91.8275 294° West 415 478 36,000  Level Minneapolis Center
09:01AM 45.8186 -92.0092 294° West 417 480 36,000 60 Level Minneapolis Center
09:02AM 45.8747 -92.1917 294° West 418 481 36,200 480 Climbing Minneapolis Center
09:03AM 45.9419 -92.3378 304° West 438 504 37,100 840 Climbing Minneapolis Center
09:04AM 46.0053 -92.4775 303° West 426 490 38,000 420 Climbing Minneapolis Center
09:05AM 46.0656 -92.6125 303° West 409 471 38,000  Level Minneapolis Center
09:06AM 46.1275 -92.7500 303° West 411 473 38,000  Level Minneapolis Center
09:07AM 46.1897 -92.8906 303° West 415 478 38,000 -60 Level Minneapolis Center
09:08AM 46.2564 -93.0400 303° West 413 475 37,900 -60 Descending Minneapolis Center
09:09AM 46.3197 -93.1822 303° West 417 480 37,900  Level Minneapolis Center
09:10AM 46.3819 -93.3256 302° West 420 483 37,900  Level Minneapolis Center
09:11AM 46.4442 -93.4675 302° West 419 482 38,000  Climbing Minneapolis Center
09:12AM 46.5056 -93.6103 302° West 418 481 37,900 -60 Descending Minneapolis Center
09:13AM 46.5681 -93.7511 303° West 415 478 37,900  Level Minneapolis Center
09:14AM 46.6297 -93.8964 302° West 420 483 37,900  Level Minneapolis Center
09:15AM 46.6906 -94.0397 302° West 418 481 37,900  Level Minneapolis Center
09:16AM 46.7642 -94.2153 302° West 422 486 38,000  Climbing Minneapolis Center
09:17AM 46.8256 -94.3575 302° West 417 480 37,900 -60 Descending Minneapolis Center
09:18AM 46.8861 -94.5006 302° West 413 475 37,900  Level Minneapolis Center
09:19AM 46.9458 -94.6447 301° West 414 476 37,900  Level Minneapolis Center
09:21AM 47.0058 -94.7878 302° West 414 476 37,900  Level Minneapolis Center
09:22AM 47.0769 -94.9617 301° West 415 478 37,900  Level Minneapolis Center
09:23AM 47.1375 -95.1086 301° West 419 482 37,900  Level Minneapolis Center
09:24AM 47.1972 -95.2553 301° West 420 483 37,900  Level Minneapolis Center
09:25AM 47.2594 -95.4064 301° West 426 490 37,900  Level Minneapolis Center
09:26AM 47.3356 -95.5867 302° West 432 497 37,900  Level Minneapolis Center
09:27AM 47.3958 -95.7383 300° West 430 495 37,900  Level Minneapolis Center
09:28AM 47.4569 -95.8931 300° West 431 496 38,000  Climbing Minneapolis Center
09:29AM 47.5175 -96.0519 299° West 438 504 38,000  Level Minneapolis Center
09:30AM 47.5553 -96.2167 289° West 433 498 38,000  Level Minneapolis Center
09:31AM 47.5992 -96.3808 292° West 430 495 38,000 -60 Level Minneapolis Center
09:32AM 47.6317 -96.5114 290° West 428 493 37,900 -60 Descending Minneapolis Center
09:33AM 47.6836 -96.7072 292° West 427 491 37,900  Level Minneapolis Center
09:34AM 47.7317 -96.9025 290° West 425 489 37,900  Level Minneapolis Center
09:35AM 47.7717 -97.0672 290° West 426 490 38,000  Climbing Minneapolis Center
09:36AM 47.8125 -97.2308 290° West 426 490 37,900 -60 Descending Minneapolis Center
09:37AM 47.8522 -97.3939 290° West 425 489 37,900  Level Minneapolis Center
09:38AM 47.8922 -97.5594 290° West 428 493 37,900  Level Minneapolis Center
09:39AM 47.9239 -97.6911 290° West 428 493 37,900  Level Minneapolis Center
09:40AM 47.9717 -97.8889 290° West 428 493 37,900  Level Minneapolis Center
09:41AM 47.9989 -98.0942 281° West 424 488 38,000  Climbing Minneapolis Center
09:42AM 48.0000 -98.2683 271° West 423 487 37,900 -60 Descending Minneapolis Center
09:43AM 48.0011 -98.4436 271° West 424 488 37,900  Level Minneapolis Center
09:44AM 48.0017 -98.6200 270° West 426 490 37,900  Level Minneapolis Center
09:45AM 48.0033 -98.7992 271° West 429 494 38,000  Climbing Minneapolis Center
09:46AM 48.0036 -98.9778 270° West 431 496 37,900 -60 Descending Minneapolis Center
09:47AM 48.0028 -99.1931 270° West 433 498 37,900  Level Minneapolis Center
09:48AM 48.0031 -99.3708 270° West 432 497 37,900  Level Minneapolis Center
09:49AM 48.0006 -99.5497 269° West 433 498 37,900  Level Minneapolis Center
09:50AM 47.9992 -99.7256 269° West 428 493 37,900  Level Minneapolis Center
09:51AM 47.9978 -99.9008 269° West 424 488 37,900  Level Minneapolis Center
09:52AM 48.0111 -100.0772 277° West 426 490 38,000  Climbing Minneapolis Center
09:53AM 48.0475 -100.2469 288° West 427 491 38,000 -60 Level Minneapolis Center
09:54AM 48.0825 -100.4150 287° West 426 490 37,900 -60 Descending Minneapolis Center
09:55AM 48.1236 -100.6183 287° West 426 490 37,900  Level Minneapolis Center
09:56AM 48.1561 -100.7894 286° West 427 491 38,000  Climbing Minneapolis Center
09:57AM 48.1917 -100.9619 287° West 432 497 37,900  Descending Minneapolis Center
09:58AM 48.2292 -101.1447 287° West 433 498 38,000  Climbing Minneapolis Center
09:59AM 48.2569 -101.3214 283° West 437 503 37,900 -60 Descending Minneapolis Center
10:01AM 48.2614 -101.5053 272° West 440 506 37,900  Level Minneapolis Center
10:02AM 48.2594 -101.6886 269° West 441 507 37,900  Level Minneapolis Center
10:03AM 48.2597 -101.8700 270° West 438 504 37,900  Level Minneapolis Center
10:04AM 48.2606 -102.0514 270° West 437 503 38,000  Climbing Minneapolis Center
10:05AM 48.2619 -102.2353 271° West 440 506 38,000 -60 Level Minneapolis Center
10:06AM 48.2614 -102.4556 270° West 442 509 37,900 -60 Descending Minneapolis Center
10:07AM 48.2608 -102.6383 270° West 440 506 37,900  Level Minneapolis Center
10:08AM 48.2597 -102.7844 269° West 440 506 37,900  Level Minneapolis Center
10:09AM 48.2597 -103.0039 270° West 441 507 38,000  Climbing Minneapolis Center
10:10AM 48.2586 -103.1881 270° West 442 509 37,900 -120 Descending Minneapolis Center
10:10AM 48.2597 -103.2978 271° West 442 509 37,900 60 Level Salt Lake Center
10:11AM 48.2567 -103.4767 269° West 439 505 38,000  Climbing Salt Lake Center
10:12AM 48.2547 -103.6931 269° West 437 503 37,900 -60 Descending Salt Lake Center
10:13AM 48.2517 -103.8775 269° West 440 506 37,900  Level Salt Lake Center
10:14AM 48.2494 -104.0544 269° West 436 502 37,900  Level Salt Lake Center
10:15AM 48.2450 -104.2367 268° West 437 503 38,000  Climbing Salt Lake Center
10:17AM 48.2464 -104.4050 271° West 412 474 37,900 -60 Descending Salt Lake Center
10:18AM 48.2381 -104.5922 266° West 431 496 37,900  Level Salt Lake Center
10:19AM 48.2336 -104.7708 268° West 430 495 37,900  Level Salt Lake Center
10:20AM 48.2264 -104.9856 267° West 432 497 37,900  Level Salt Lake Center
10:21AM 48.2236 -105.1606 269° West 428 493 38,000  Climbing Salt Lake Center
10:22AM 48.2183 -105.3392 268° West 428 493 38,000 -60 Level Salt Lake Center
10:23AM 48.2133 -105.5183 268° West 430 495 37,900  Descending Salt Lake Center
10:24AM 48.2072 -105.6961 267° West 430 495 38,000  Climbing Salt Lake Center
10:25AM 48.2017 -105.8711 267° West 425 489 37,900 -60 Descending Salt Lake Center
10:26AM 48.1944 -106.0797 267° West 421 484 37,900  Level Salt Lake Center
10:27AM 48.1892 -106.2536 267° West 420 483 37,900  Level Salt Lake Center
10:28AM 48.1817 -106.4281 266° West 421 484 37,900  Level Salt Lake Center
10:29AM 48.1736 -106.6031 266° West 423 487 38,000  Climbing Salt Lake Center
10:30AM 48.1675 -106.7769 267° West 421 484 38,000 -60 Level Salt Lake Center
10:31AM 48.1611 -106.9497 267° West 418 481 37,900 -60 Descending Salt Lake Center
10:32AM 48.1533 -107.1239 266° West 420 483 37,900  Level Salt Lake Center
10:33AM 48.1439 -107.3319 266° West 421 484 37,900  Level Salt Lake Center
10:34AM 48.1369 -107.4972 266° West 423 487 38,000  Climbing Salt Lake Center
10:35AM 48.1300 -107.6725 267° West 423 487 38,000  Level Salt Lake Center
10:36AM 48.1211 -107.8461 266° West 421 484 38,000 -60 Level Salt Lake Center
10:37AM 48.1117 -108.0183 265° West 419 482 37,900 -60 Descending Salt Lake Center
10:38AM 48.1008 -108.2244 266° West 417 480 37,900  Level Salt Lake Center
10:39AM 48.0919 -108.3942 266° West 412 474 37,900  Level Salt Lake Center
10:40AM 48.0819 -108.5647 265° West 413 475 37,900  Level Salt Lake Center
10:41AM 48.0725 -108.7331 265° West 409 471 37,900  Level Salt Lake Center
10:42AM 48.0639 -108.9011 266° West 408 470 38,000  Climbing Salt Lake Center
10:43AM 48.0528 -109.0678 264° West 406 467 37,900 -60 Descending Salt Lake Center
10:44AM 48.0400 -109.2700 265° West 408 470 37,900  Level Salt Lake Center
10:45AM 48.0306 -109.4411 265° West 412 474 38,000  Climbing Salt Lake Center
10:46AM 48.0186 -109.6119 264° West 415 478 38,000  Level Salt Lake Center
10:47AM 48.0072 -109.7811 264° West 412 474 38,000 -60 Level Salt Lake Center
10:48AM 47.9950 -109.9481 264° West 408 470 37,900 -60 Descending Salt Lake Center
10:49AM 47.9836 -110.1136 264° West 405 466 37,900  Level Salt Lake Center
10:51AM 47.9697 -110.3117 264° West 402 463 37,900  Level Salt Lake Center
10:52AM 47.9583 -110.4750 264° West 400 460 37,900  Level Salt Lake Center
10:53AM 47.9456 -110.6403 263° West 402 463 37,900  Level Salt Lake Center
10:54AM 47.9331 -110.8061 264° West 404 465 37,900  Level Salt Lake Center
10:55AM 47.9200 -110.9731 263° West 407 468 38,000  Climbing Salt Lake Center
10:56AM 47.9036 -111.1742 263° West 411 473 38,000  Level Salt Lake Center
10:57AM 47.8900 -111.3422 263° West 413 475 38,000  Level Salt Lake Center
10:58AM 47.8767 -111.5092 263° West 413 475 38,000  Level Salt Lake Center
10:59AM 47.8633 -111.6758 263° West 412 474 38,000 -60 Level Salt Lake Center
11:00AM 47.8481 -111.8425 262° West 410 472 37,900 -60 Descending Salt Lake Center
11:01AM 47.8303 -112.0433 263° West 411 473 37,900  Level Salt Lake Center
11:02AM 47.8150 -112.2131 262° West 414 476 37,900  Level Salt Lake Center
11:03AM 47.8003 -112.3819 263° West 414 476 37,900  Level Salt Lake Center
11:04AM 47.7842 -112.5497 262° West 413 475 37,900  Level Salt Lake Center
11:05AM 47.7719 -112.7119 264° West 410 472 38,000  Climbing Salt Lake Center
11:06AM 47.7522 -112.9081 262° West 403 464 37,900 -60 Descending Salt Lake Center
11:07AM 47.7375 -113.0708 262° West 399 459 37,900  Level Salt Lake Center
11:08AM 47.7217 -113.2325 262° West 397 457 37,900  Level Salt Lake Center
11:09AM 47.7042 -113.3947 261° West 398 458 37,900  Level Salt Lake Center
11:10AM 47.6881 -113.5575 262° West 399 459 37,900  Level Salt Lake Center
11:11AM 47.6708 -113.7214 261° West 400 460 38,000  Climbing Salt Lake Center
11:12AM 47.6508 -113.9178 261° West 401 461 38,000 -60 Level Salt Lake Center
11:13AM 47.6339 -114.0819 261° West 401 461 37,900 -60 Descending Salt Lake Center
11:14AM 47.6161 -114.2461 261° West 401 461 37,900  Level Salt Lake Center
11:15AM 47.5983 -114.4128 261° West 407 468 37,900  Level Salt Lake Center
11:16AM 47.5803 -114.5781 261° West 406 467 37,900  Level Salt Lake Center
11:17AM 47.5656 -114.7100 261° West 405 466 37,900  Level Seattle Center
11:18AM 47.5469 -114.8758 261° West 406 467 37,900  Level Seattle Center
11:19AM 47.5281 -115.0414 260° West 408 470 37,900  Level Seattle Center
11:20AM 47.5083 -115.2069 260° West 408 470 37,900  Level Seattle Center
11:21AM 47.4950 -115.3728 263° West 407 468 37,900  Level Seattle Center
11:22AM 47.5111 -115.5350 278° West 402 463 37,900  Level Seattle Center
11:23AM 47.5239 -115.6978 277° West 400 460 37,900  Level Seattle Center
11:24AM 47.5397 -115.8814 277° West 399 459 37,900  Level Seattle Center
11:25AM 47.5517 -116.0453 276° West 401 461 37,900  Level Seattle Center
11:26AM 47.5647 -116.2103 277° West 404 465 37,900  Level Seattle Center
11:27AM 47.5783 -116.3778 277° West 409 471 38,000  Climbing Seattle Center
11:28AM 47.5914 -116.5458 277° West 412 474 38,000  Level Seattle Center
11:29AM 47.6047 -116.7125 277° West 410 472 38,000 -60 Level Seattle Center
11:30AM 47.6181 -116.8783 277° West 410 472 37,900 -60 Descending Seattle Center
11:31AM 47.6325 -117.0625 277° West 411 473 37,900  Level Seattle Center
11:32AM 47.6442 -117.2372 276° West 412 474 38,000  Climbing Seattle Center
11:33AM 47.6550 -117.4008 276° West 404 465 37,900 -60 Descending Seattle Center
11:34AM 47.6667 -117.5650 276° West 403 464 37,900  Level Seattle Center
11:35AM 47.6775 -117.7297 276° West 403 464 37,900  Level Seattle Center
11:36AM 47.6881 -117.8944 275° West 404 465 37,900  Level Seattle Center
11:37AM 47.6994 -118.0606 276° West 404 465 37,900  Level Seattle Center
11:38AM 47.7092 -118.2258 275° West 403 464 37,900  Level Seattle Center
11:39AM 47.7186 -118.3925 275° West 406 467 38,000  Climbing Seattle Center
11:40AM 47.7283 -118.5569 275° West 403 464 37,900 -60 Descending Seattle Center
11:41AM 47.7386 -118.7228 271° West 404 465 37,900  Level Seattle Center
11:42AM 47.7305 -118.7407 271° West  Level FlightAware Approximate
11:42AM 47.7472 -118.8872 275° West 402 463 37,900  Level Seattle Center
11:43AM 47.7564 -119.0542 275° West 405 466 38,000  Climbing Seattle Center
11:44AM 47.7678 -119.2522 275° West 404 465 38,000 -60 Level Seattle Center
11:46AM 47.7756 -119.4156 274° West 399 459 37,900 -60 Descending Seattle Center
11:47AM 47.7847 -119.5806 275° West 400 460 37,900  Level Seattle Center
11:48AM 47.7917 -119.7444 274° West 400 460 37,900  Level Seattle Center
11:49AM 47.7997 -119.9103 274° West 402 463 38,000  Climbing Seattle Center
11:50AM 47.8081 -120.0753 274° West 401 461 38,000 -420 Level Seattle Center
11:51AM 47.8136 -120.2389 273° West 398 458 37,200 -840 Descending Seattle Center
11:52AM 47.8214 -120.4011 274° West 395 455 36,300 -1,020 Descending Seattle Center
11:53AM 47.8289 -120.5644 274° West 397 457 35,200 -1,920 Descending Seattle Center
11:54AM 47.8375 -120.7317 274° West 405 466 32,400 -2,760 Descending Seattle Center
11:55AM 47.8442 -120.9178 273° West 408 470 29,600 -2,640 Descending Seattle Center
11:56AM 47.8506 -121.0839 273° West 406 467 27,100 -2,640 Descending Seattle Center
11:56AM 47.8569 -121.2244 274° West 404 465 25,000 -2,460 Descending Seattle Center
11:57AM 47.8575 -121.2456 272° West 398 458 24,600 -2,100 Descending Seattle Center
11:57AM 47.8667 -121.3814 276° West 385 443 22,900 -1,980 Descending Seattle Center
11:58AM 47.8667 -121.4025 270° West 387 445 22,600 -2,340 Descending Seattle Center
11:58AM 47.8756 -121.5356 276° West 373 429 20,600 -2,280 Descending Seattle Center
11:59AM 47.8781 -121.5542 281° West 374 430 20,300 -2,400 Descending Seattle Center
11:59AM 47.8817 -121.6878 272° West 368 423 18,200 -2,280 Descending Seattle Center
12:00PM 47.8772 -121.7039 248° West 369 425 18,000 -1,920 Descending Seattle Center
12:00PM 47.8150 -121.8019 227° Southwest 373 429 16,300 -2,280 Descending Seattle Center
12:01PM 47.7903 -121.8322 219° Southwest 371 427 15,700 -1,800 Descending Seattle Center
12:01PM 47.7339 -121.9106 223° Southwest 366 421 14,500 -1,500 Descending Seattle Center
12:02PM 47.7169 -121.9322 221° Southwest 359 413 14,200 -1,140 Descending Seattle Center
12:02PM 47.6625 -122.0067 223° Southwest 342 394 13,400 -1,020 Descending Seattle Center
12:03PM 47.6472 -122.0267 221° Southwest 344 396 13,200 -1,020 Descending Seattle Center
12:04PM 47.5925 -122.0983 221° Southwest 336 387 12,400 -1,380 Descending Seattle Center
12:04PM 47.5722 -122.1269 224° Southwest 338 389 11,800 -1,800 Descending Seattle Center
12:05PM 47.5208 -122.1744 212° Southwest 322 371 10,600 -1,680 Descending Seattle Center
12:05PM 47.4950 -122.1714 175° South 308 354 10,100 -2,100 Descending Seattle Center
12:06PM 47.4400 -122.1633 174° South 282 325 8,500 -2,400 Descending Seattle Center
12:06PM 47.4150 -122.1606 176° South 287 330 7,700 -2,460 Descending Seattle Center
12:07PM 47.3622 -122.1639 182° South 273 314 6,000 -2,400 Descending Seattle Center
12:07PM 47.3389 -122.1683 187° South 274 315 5,300 -1,680 Descending Seattle Center
12:08PM 47.2908 -122.1806 190° South 251 289 4,300 -1,320 Descending Seattle Center
12:08PM 47.2722 -122.1889 197° South 246 283 4,000 -1,140 Descending Seattle Center
12:09PM 47.2589 -122.2472 251° West 212 244 3,200 -1,020 Descending Seattle Center
12:09PM 47.2614 -122.2800 276° West 217 250 3,000 -600 Descending Seattle Center
12:10PM 47.2908 -122.3114 324° Northwest 185 213 2,600 -600 Descending Seattle Center
12:10PM 47.3064 -122.3114 360° North 185 213 2,400 -300 Descending Seattle Center
12:11PM 47.3378 -122.3117 360° North 164 189 2,300 -300 Descending Seattle Center
12:11PM 47.3519 -122.3122 358° North 166 191 2,100 -720 Descending Seattle Center
12:12PM 47.3761 -122.3136 358° North 138 159 1,600 -720 Descending Seattle Center
12:12PM 47.3869 -122.3119 North 132 152 1,400 -600 Descending Seattle Center
12:13PM 47.4089 -122.3117 360° North 118 136 1,000 -600 Descending Seattle Center
12:13PM 47.4208 -122.3117 360° North 124 143 800 -600 Descending Seattle Center